sensor_id;sensor_type;location;lat;lon;timestamp;P1;durP1;ratioP1;P2;durP2;ratioP2
54157;SDS011;40065;49.894;10.358;2023-07-22T00:03:45;11.80;;;8.50;;
54157;SDS011;40065;49.894;10.358;2023-07-22T00:08:47;14.10;;;7.53;;
54157;SDS011;40065;49.894;10.358;2023-07-22T00:13:48;8.20;;;5.75;;
54157;SDS011;40065;49.894;10.358;2023-07-22T00:18:50;8.02;;;6.07;;
54157;SDS011;40065;49.894;10.358;2023-07-22T00:23:52;9.93;;;6.35;;
54157;SDS011;40065;49.894;10.358;2023-07-22T00:28:54;9.80;;;6.68;;
54157;SDS011;40065;49.894;10.358;2023-07-22T00:33:56;10.90;;;6.22;;
54157;SDS011;40065;49.894;10.358;2023-07-22T00:38:58;9.30;;;6.50;;
54157;SDS011;40065;49.894;10.358;2023-07-22T00:44:00;10.02;;;6.85;;
54157;SDS011;40065;49.894;10.358;2023-07-22T00:49:02;9.93;;;6.82;;
54157;SDS011;40065;49.894;10.358;2023-07-22T00:54:04;13.23;;;7.35;;
54157;SDS011;40065;49.894;10.358;2023-07-22T00:59:06;11.88;;;7.00;;
54157;SDS011;40065;49.894;10.358;2023-07-22T01:04:08;9.82;;;6.20;;
54157;SDS011;40065;49.894;10.358;2023-07-22T01:09:11;9.00;;;6.28;;
54157;SDS011;40065;49.894;10.358;2023-07-22T01:14:13;10.27;;;6.10;;
54157;SDS011;40065;49.894;10.358;2023-07-22T01:19:15;9.85;;;5.45;;
54157;SDS011;40065;49.894;10.358;2023-07-22T01:24:20;6.35;;;4.45;;
54157;SDS011;40065;49.894;10.358;2023-07-22T01:29:23;6.38;;;4.40;;
54157;SDS011;40065;49.894;10.358;2023-07-22T01:34:25;5.30;;;3.20;;
54157;SDS011;40065;49.894;10.358;2023-07-22T01:39:27;5.95;;;3.58;;
54157;SDS011;40065;49.894;10.358;2023-07-22T01:44:29;4.68;;;3.30;;
54157;SDS011;40065;49.894;10.358;2023-07-22T01:49:31;4.95;;;2.85;;
54157;SDS011;40065;49.894;10.358;2023-07-22T01:54:33;5.47;;;3.50;;
54157;SDS011;40065;49.894;10.358;2023-07-22T01:59:35;6.63;;;3.00;;
54157;SDS011;40065;49.894;10.358;2023-07-22T02:04:37;6.30;;;4.15;;
54157;SDS011;40065;49.894;10.358;2023-07-22T02:09:38;4.32;;;2.90;;
54157;SDS011;40065;49.894;10.358;2023-07-22T02:14:40;6.80;;;5.00;;
54157;SDS011;40065;49.894;10.358;2023-07-22T02:19:42;7.45;;;4.63;;
54157;SDS011;40065;49.894;10.358;2023-07-22T02:24:45;5.43;;;3.78;;
54157;SDS011;40065;49.894;10.358;2023-07-22T02:29:47;9.95;;;5.07;;
54157;SDS011;40065;49.894;10.358;2023-07-22T02:34:48;7.53;;;5.20;;
54157;SDS011;40065;49.894;10.358;2023-07-22T02:39:50;4.22;;;2.90;;
54157;SDS011;40065;49.894;10.358;2023-07-22T02:44:52;4.53;;;3.50;;
54157;SDS011;40065;49.894;10.358;2023-07-22T02:49:54;7.30;;;4.45;;
54157;SDS011;40065;49.894;10.358;2023-07-22T02:55:05;6.20;;;3.80;;
54157;SDS011;40065;49.894;10.358;2023-07-22T03:00:13;8.32;;;5.28;;
54157;SDS011;40065;49.894;10.358;2023-07-22T03:05:19;4.90;;;3.30;;
54157;SDS011;40065;49.894;10.358;2023-07-22T03:10:21;8.75;;;5.10;;
54157;SDS011;40065;49.894;10.358;2023-07-22T03:15:23;10.50;;;5.32;;
54157;SDS011;40065;49.894;10.358;2023-07-22T03:20:27;5.25;;;3.78;;
54157;SDS011;40065;49.894;10.358;2023-07-22T03:25:29;8.02;;;4.35;;
54157;SDS011;40065;49.894;10.358;2023-07-22T03:30:31;8.98;;;5.43;;
54157;SDS011;40065;49.894;10.358;2023-07-22T03:35:34;6.13;;;4.55;;
54157;SDS011;40065;49.894;10.358;2023-07-22T03:40:36;6.15;;;4.63;;
54157;SDS011;40065;49.894;10.358;2023-07-22T03:45:40;7.55;;;4.70;;
54157;SDS011;40065;49.894;10.358;2023-07-22T03:50:42;6.78;;;4.75;;
54157;SDS011;40065;49.894;10.358;2023-07-22T03:55:44;12.10;;;6.28;;
54157;SDS011;40065;49.894;10.358;2023-07-22T04:00:49;7.60;;;5.60;;
54157;SDS011;40065;49.894;10.358;2023-07-22T04:05:55;8.40;;;5.68;;
54157;SDS011;40065;49.894;10.358;2023-07-22T04:10:57;7.63;;;4.80;;
54157;SDS011;40065;49.894;10.358;2023-07-22T04:15:59;7.53;;;5.38;;
54157;SDS011;40065;49.894;10.358;2023-07-22T04:21:02;4.93;;;3.70;;
54157;SDS011;40065;49.894;10.358;2023-07-22T04:26:04;5.30;;;3.70;;
54157;SDS011;40065;49.894;10.358;2023-07-22T04:31:09;5.88;;;3.05;;
54157;SDS011;40065;49.894;10.358;2023-07-22T04:36:11;5.68;;;2.85;;
54157;SDS011;40065;49.894;10.358;2023-07-22T04:41:13;3.80;;;2.58;;
54157;SDS011;40065;49.894;10.358;2023-07-22T04:46:15;4.53;;;2.67;;
54157;SDS011;40065;49.894;10.358;2023-07-22T04:51:17;4.07;;;2.80;;
54157;SDS011;40065;49.894;10.358;2023-07-22T04:56:19;5.22;;;3.90;;
54157;SDS011;40065;49.894;10.358;2023-07-22T05:01:21;5.35;;;3.20;;
54157;SDS011;40065;49.894;10.358;2023-07-22T05:06:24;6.95;;;3.83;;
54157;SDS011;40065;49.894;10.358;2023-07-22T05:11:26;4.97;;;3.75;;
54157;SDS011;40065;49.894;10.358;2023-07-22T05:16:28;4.22;;;3.17;;
54157;SDS011;40065;49.894;10.358;2023-07-22T05:21:31;4.50;;;3.38;;
54157;SDS011;40065;49.894;10.358;2023-07-22T05:26:33;5.13;;;3.28;;
54157;SDS011;40065;49.894;10.358;2023-07-22T05:31:34;4.72;;;3.50;;
54157;SDS011;40065;49.894;10.358;2023-07-22T05:36:38;4.50;;;3.20;;
54157;SDS011;40065;49.894;10.358;2023-07-22T05:41:40;5.53;;;3.35;;
54157;SDS011;40065;49.894;10.358;2023-07-22T05:46:42;7.50;;;4.13;;
54157;SDS011;40065;49.894;10.358;2023-07-22T05:51:44;5.70;;;3.80;;
54157;SDS011;40065;49.894;10.358;2023-07-22T05:56:46;4.35;;;3.30;;
54157;SDS011;40065;49.894;10.358;2023-07-22T06:01:47;6.40;;;3.80;;
54157;SDS011;40065;49.894;10.358;2023-07-22T06:06:50;5.60;;;4.32;;
54157;SDS011;40065;49.894;10.358;2023-07-22T06:11:51;6.40;;;4.90;;
54157;SDS011;40065;49.894;10.358;2023-07-22T06:16:53;6.82;;;4.45;;
54157;SDS011;40065;49.894;10.358;2023-07-22T06:21:55;7.40;;;4.40;;
54157;SDS011;40065;49.894;10.358;2023-07-22T06:26:57;4.90;;;3.78;;
54157;SDS011;40065;49.894;10.358;2023-07-22T06:32:00;8.63;;;4.57;;
54157;SDS011;40065;49.894;10.358;2023-07-22T06:37:02;6.68;;;4.00;;
54157;SDS011;40065;49.894;10.358;2023-07-22T06:42:04;7.88;;;4.60;;
54157;SDS011;40065;49.894;10.358;2023-07-22T06:47:06;5.95;;;4.20;;
54157;SDS011;40065;49.894;10.358;2023-07-22T06:52:08;6.38;;;3.85;;
54157;SDS011;40065;49.894;10.358;2023-07-22T06:57:10;8.10;;;4.25;;
54157;SDS011;40065;49.894;10.358;2023-07-22T07:02:12;6.03;;;4.53;;
54157;SDS011;40065;49.894;10.358;2023-07-22T07:07:15;6.85;;;4.20;;
54157;SDS011;40065;49.894;10.358;2023-07-22T07:12:17;6.32;;;4.53;;
54157;SDS011;40065;49.894;10.358;2023-07-22T07:17:19;7.68;;;4.75;;
54157;SDS011;40065;49.894;10.358;2023-07-22T07:22:21;8.25;;;4.60;;
54157;SDS011;40065;49.894;10.358;2023-07-22T07:27:23;7.07;;;4.50;;
54157;SDS011;40065;49.894;10.358;2023-07-22T07:32:25;7.75;;;4.38;;
54157;SDS011;40065;49.894;10.358;2023-07-22T07:37:27;7.55;;;4.72;;
54157;SDS011;40065;49.894;10.358;2023-07-22T07:42:29;7.20;;;4.25;;
54157;SDS011;40065;49.894;10.358;2023-07-22T07:47:30;5.65;;;3.88;;
54157;SDS011;40065;49.894;10.358;2023-07-22T07:52:32;6.78;;;4.38;;
54157;SDS011;40065;49.894;10.358;2023-07-22T07:57:34;6.80;;;4.00;;
54157;SDS011;40065;49.894;10.358;2023-07-22T08:02:36;6.65;;;4.30;;
54157;SDS011;40065;49.894;10.358;2023-07-22T08:07:38;10.20;;;4.63;;
54157;SDS011;40065;49.894;10.358;2023-07-22T08:12:40;5.95;;;3.53;;
54157;SDS011;40065;49.894;10.358;2023-07-22T08:17:42;6.50;;;4.35;;
54157;SDS011;40065;49.894;10.358;2023-07-22T08:22:44;5.88;;;3.92;;
54157;SDS011;40065;49.894;10.358;2023-07-22T08:27:46;5.53;;;3.70;;
54157;SDS011;40065;49.894;10.358;2023-07-22T08:32:48;5.35;;;3.38;;
54157;SDS011;40065;49.894;10.358;2023-07-22T08:37:50;7.15;;;3.30;;
54157;SDS011;40065;49.894;10.358;2023-07-22T08:42:52;6.07;;;3.55;;
54157;SDS011;40065;49.894;10.358;2023-07-22T08:47:54;4.78;;;2.83;;
54157;SDS011;40065;49.894;10.358;2023-07-22T08:52:59;5.30;;;2.97;;
54157;SDS011;40065;49.894;10.358;2023-07-22T08:58:02;4.28;;;3.13;;
54157;SDS011;40065;49.894;10.358;2023-07-22T09:03:05;6.03;;;3.15;;
54157;SDS011;40065;49.894;10.358;2023-07-22T09:08:08;4.83;;;3.00;;
54157;SDS011;40065;49.894;10.358;2023-07-22T09:13:11;4.30;;;2.70;;
54157;SDS011;40065;49.894;10.358;2023-07-22T09:18:14;4.57;;;1.95;;
54157;SDS011;40065;49.894;10.358;2023-07-22T09:23:17;5.80;;;2.50;;
54157;SDS011;40065;49.894;10.358;2023-07-22T09:28:19;4.82;;;2.67;;
54157;SDS011;40065;49.894;10.358;2023-07-22T09:33:22;6.20;;;2.75;;
54157;SDS011;40065;49.894;10.358;2023-07-22T09:38:25;3.97;;;2.38;;
54157;SDS011;40065;49.894;10.358;2023-07-22T09:43:29;4.30;;;2.50;;
54157;SDS011;40065;49.894;10.358;2023-07-22T09:48:38;4.53;;;2.80;;
54157;SDS011;40065;49.894;10.358;2023-07-22T09:53:45;3.05;;;2.22;;
54157;SDS011;40065;49.894;10.358;2023-07-22T09:58:48;3.92;;;2.20;;
54157;SDS011;40065;49.894;10.358;2023-07-22T10:03:52;4.43;;;2.20;;
54157;SDS011;40065;49.894;10.358;2023-07-22T10:08:56;3.33;;;2.17;;
54157;SDS011;40065;49.894;10.358;2023-07-22T10:14:02;4.30;;;2.30;;
54157;SDS011;40065;49.894;10.358;2023-07-22T10:19:05;28.48;;;5.75;;
54157;SDS011;40065;49.894;10.358;2023-07-22T10:24:08;3.88;;;2.17;;
54157;SDS011;40065;49.894;10.358;2023-07-22T10:29:11;3.30;;;1.95;;
54157;SDS011;40065;49.894;10.358;2023-07-22T10:34:14;4.10;;;1.80;;
54157;SDS011;40065;49.894;10.358;2023-07-22T10:39:26;4.68;;;2.72;;
54157;SDS011;40065;49.894;10.358;2023-07-22T10:44:35;5.63;;;2.27;;
54157;SDS011;40065;49.894;10.358;2023-07-22T10:49:43;3.85;;;2.00;;
54157;SDS011;40065;49.894;10.358;2023-07-22T10:54:47;6.43;;;2.90;;
54157;SDS011;40065;49.894;10.358;2023-07-22T10:59:50;3.15;;;2.00;;
54157;SDS011;40065;49.894;10.358;2023-07-22T11:04:55;5.10;;;2.30;;
54157;SDS011;40065;49.894;10.358;2023-07-22T11:10:10;4.22;;;1.73;;
54157;SDS011;40065;49.894;10.358;2023-07-22T11:15:16;3.05;;;2.03;;
54157;SDS011;40065;49.894;10.358;2023-07-22T11:20:20;6.03;;;2.00;;
54157;SDS011;40065;49.894;10.358;2023-07-22T11:25:23;5.47;;;2.20;;
54157;SDS011;40065;49.894;10.358;2023-07-22T11:30:27;3.35;;;2.08;;
54157;SDS011;40065;49.894;10.358;2023-07-22T11:35:29;4.18;;;1.70;;
54157;SDS011;40065;49.894;10.358;2023-07-22T11:40:34;4.32;;;1.92;;
54157;SDS011;40065;49.894;10.358;2023-07-22T11:45:37;3.42;;;1.90;;
54157;SDS011;40065;49.894;10.358;2023-07-22T11:50:40;2.65;;;1.67;;
54157;SDS011;40065;49.894;10.358;2023-07-22T11:55:42;5.43;;;2.03;;
54157;SDS011;40065;49.894;10.358;2023-07-22T12:00:45;2.58;;;1.75;;
54157;SDS011;40065;49.894;10.358;2023-07-22T12:06:05;3.72;;;1.80;;
54157;SDS011;40065;49.894;10.358;2023-07-22T12:11:08;3.72;;;1.83;;
54157;SDS011;40065;49.894;10.358;2023-07-22T12:16:22;3.95;;;1.73;;
54157;SDS011;40065;49.894;10.358;2023-07-22T12:21:27;3.55;;;1.83;;
54157;SDS011;40065;49.894;10.358;2023-07-22T12:26:30;3.07;;;1.93;;
54157;SDS011;40065;49.894;10.358;2023-07-22T12:31:32;3.90;;;1.75;;
54157;SDS011;40065;49.894;10.358;2023-07-22T12:36:34;4.00;;;2.03;;
54157;SDS011;40065;49.894;10.358;2023-07-22T12:41:36;5.82;;;1.80;;
54157;SDS011;40065;49.894;10.358;2023-07-22T12:46:38;2.65;;;1.50;;
54157;SDS011;40065;49.894;10.358;2023-07-22T12:51:40;4.10;;;1.88;;
54157;SDS011;40065;49.894;10.358;2023-07-22T12:56:42;3.72;;;1.90;;
54157;SDS011;40065;49.894;10.358;2023-07-22T13:01:44;4.03;;;1.90;;
54157;SDS011;40065;49.894;10.358;2023-07-22T13:06:46;2.42;;;1.40;;
54157;SDS011;40065;49.894;10.358;2023-07-22T13:11:48;3.72;;;1.52;;
54157;SDS011;40065;49.894;10.358;2023-07-22T13:16:50;3.65;;;1.98;;
54157;SDS011;40065;49.894;10.358;2023-07-22T13:21:52;5.90;;;1.83;;
54157;SDS011;40065;49.894;10.358;2023-07-22T13:26:54;5.88;;;1.90;;
54157;SDS011;40065;49.894;10.358;2023-07-22T13:31:56;2.40;;;1.77;;
54157;SDS011;40065;49.894;10.358;2023-07-22T13:36:58;2.53;;;1.73;;
54157;SDS011;40065;49.894;10.358;2023-07-22T13:42:00;4.00;;;1.70;;
54157;SDS011;40065;49.894;10.358;2023-07-22T13:47:02;3.92;;;1.88;;
54157;SDS011;40065;49.894;10.358;2023-07-22T13:52:04;2.63;;;1.60;;
54157;SDS011;40065;49.894;10.358;2023-07-22T13:57:06;2.50;;;1.60;;
54157;SDS011;40065;49.894;10.358;2023-07-22T14:07:12;3.40;;;1.83;;
54157;SDS011;40065;49.894;10.358;2023-07-22T14:12:14;3.30;;;1.90;;
54157;SDS011;40065;49.894;10.358;2023-07-22T14:17:16;4.10;;;1.83;;
54157;SDS011;40065;49.894;10.358;2023-07-22T14:22:18;4.37;;;1.70;;
54157;SDS011;40065;49.894;10.358;2023-07-22T14:27:20;3.08;;;1.73;;
54157;SDS011;40065;49.894;10.358;2023-07-22T14:32:22;2.90;;;1.55;;
54157;SDS011;40065;49.894;10.358;2023-07-22T14:37:24;5.53;;;2.10;;
54157;SDS011;40065;49.894;10.358;2023-07-22T14:42:26;3.30;;;1.58;;
54157;SDS011;40065;49.894;10.358;2023-07-22T14:47:28;4.10;;;1.83;;
54157;SDS011;40065;49.894;10.358;2023-07-22T14:52:30;2.00;;;1.35;;
54157;SDS011;40065;49.894;10.358;2023-07-22T14:57:32;2.53;;;1.38;;
54157;SDS011;40065;49.894;10.358;2023-07-22T15:02:33;3.58;;;1.40;;
54157;SDS011;40065;49.894;10.358;2023-07-22T15:07:35;4.47;;;1.80;;
54157;SDS011;40065;49.894;10.358;2023-07-22T15:12:37;2.88;;;1.60;;
54157;SDS011;40065;49.894;10.358;2023-07-22T15:17:39;3.75;;;1.80;;
54157;SDS011;40065;49.894;10.358;2023-07-22T15:22:41;3.38;;;1.50;;
54157;SDS011;40065;49.894;10.358;2023-07-22T15:27:43;2.53;;;1.40;;
54157;SDS011;40065;49.894;10.358;2023-07-22T15:32:45;2.13;;;1.33;;
54157;SDS011;40065;49.894;10.358;2023-07-22T15:37:47;2.55;;;1.42;;
54157;SDS011;40065;49.894;10.358;2023-07-22T15:42:49;3.67;;;1.40;;
54157;SDS011;40065;49.894;10.358;2023-07-22T15:47:51;2.50;;;1.40;;
54157;SDS011;40065;49.894;10.358;2023-07-22T15:52:53;6.43;;;1.55;;
54157;SDS011;40065;49.894;10.358;2023-07-22T15:57:54;2.65;;;1.30;;
54157;SDS011;40065;49.894;10.358;2023-07-22T16:02:57;3.67;;;1.70;;
54157;SDS011;40065;49.894;10.358;2023-07-22T16:07:58;2.05;;;1.30;;
54157;SDS011;40065;49.894;10.358;2023-07-22T16:13:01;2.42;;;1.50;;
54157;SDS011;40065;49.894;10.358;2023-07-22T16:18:03;2.03;;;1.35;;
54157;SDS011;40065;49.894;10.358;2023-07-22T16:23:05;2.78;;;1.50;;
54157;SDS011;40065;49.894;10.358;2023-07-22T16:28:07;3.42;;;1.48;;
54157;SDS011;40065;49.894;10.358;2023-07-22T16:33:10;2.70;;;1.42;;
54157;SDS011;40065;49.894;10.358;2023-07-22T16:38:13;3.13;;;1.40;;
54157;SDS011;40065;49.894;10.358;2023-07-22T16:43:15;4.38;;;1.55;;
54157;SDS011;40065;49.894;10.358;2023-07-22T16:48:17;3.28;;;1.70;;
54157;SDS011;40065;49.894;10.358;2023-07-22T16:53:19;2.42;;;1.45;;
54157;SDS011;40065;49.894;10.358;2023-07-22T16:58:21;2.92;;;1.65;;
54157;SDS011;40065;49.894;10.358;2023-07-22T17:03:23;3.60;;;1.80;;
54157;SDS011;40065;49.894;10.358;2023-07-22T17:08:25;3.03;;;1.70;;
54157;SDS011;40065;49.894;10.358;2023-07-22T17:13:27;3.25;;;1.60;;
54157;SDS011;40065;49.894;10.358;2023-07-22T17:18:29;5.07;;;1.65;;
54157;SDS011;40065;49.894;10.358;2023-07-22T17:23:34;3.75;;;1.48;;
54157;SDS011;40065;49.894;10.358;2023-07-22T17:28:36;2.97;;;1.60;;
54157;SDS011;40065;49.894;10.358;2023-07-22T17:33:38;3.08;;;1.70;;
54157;SDS011;40065;49.894;10.358;2023-07-22T17:38:40;3.20;;;1.80;;
54157;SDS011;40065;49.894;10.358;2023-07-22T17:43:42;2.95;;;1.98;;
54157;SDS011;40065;49.894;10.358;2023-07-22T17:48:44;6.07;;;1.65;;
54157;SDS011;40065;49.894;10.358;2023-07-22T17:53:50;7.15;;;1.80;;
54157;SDS011;40065;49.894;10.358;2023-07-22T17:58:51;2.35;;;1.70;;
54157;SDS011;40065;49.894;10.358;2023-07-22T18:03:53;3.65;;;1.50;;
54157;SDS011;40065;49.894;10.358;2023-07-22T18:08:56;4.03;;;1.75;;
54157;SDS011;40065;49.894;10.358;2023-07-22T18:13:58;3.65;;;2.08;;
54157;SDS011;40065;49.894;10.358;2023-07-22T18:19:00;4.25;;;1.70;;
54157;SDS011;40065;49.894;10.358;2023-07-22T18:24:02;2.67;;;1.58;;
54157;SDS011;40065;49.894;10.358;2023-07-22T18:29:04;5.22;;;1.80;;
54157;SDS011;40065;49.894;10.358;2023-07-22T18:34:06;4.20;;;2.10;;
54157;SDS011;40065;49.894;10.358;2023-07-22T18:39:09;4.70;;;1.75;;
54157;SDS011;40065;49.894;10.358;2023-07-22T18:44:11;4.78;;;1.90;;
54157;SDS011;40065;49.894;10.358;2023-07-22T18:49:13;4.53;;;1.80;;
54157;SDS011;40065;49.894;10.358;2023-07-22T18:54:15;6.60;;;1.92;;
54157;SDS011;40065;49.894;10.358;2023-07-22T18:59:17;3.03;;;1.52;;
54157;SDS011;40065;49.894;10.358;2023-07-22T19:04:18;4.28;;;1.60;;
54157;SDS011;40065;49.894;10.358;2023-07-22T19:09:21;3.42;;;1.75;;
54157;SDS011;40065;49.894;10.358;2023-07-22T19:14:23;3.08;;;1.50;;
54157;SDS011;40065;49.894;10.358;2023-07-22T19:19:25;4.97;;;2.40;;
54157;SDS011;40065;49.894;10.358;2023-07-22T19:24:27;3.63;;;2.10;;
54157;SDS011;40065;49.894;10.358;2023-07-22T19:29:29;3.42;;;1.70;;
54157;SDS011;40065;49.894;10.358;2023-07-22T19:34:32;3.45;;;1.88;;
54157;SDS011;40065;49.894;10.358;2023-07-22T19:39:34;4.93;;;2.10;;
54157;SDS011;40065;49.894;10.358;2023-07-22T19:44:35;3.00;;;1.70;;
54157;SDS011;40065;49.894;10.358;2023-07-22T19:49:38;4.55;;;2.60;;
54157;SDS011;40065;49.894;10.358;2023-07-22T19:54:43;5.60;;;2.20;;
54157;SDS011;40065;49.894;10.358;2023-07-22T19:59:45;4.10;;;1.88;;
54157;SDS011;40065;49.894;10.358;2023-07-22T20:04:47;6.00;;;2.00;;
54157;SDS011;40065;49.894;10.358;2023-07-22T20:09:49;3.25;;;1.90;;
54157;SDS011;40065;49.894;10.358;2023-07-22T20:14:51;4.25;;;1.92;;
54157;SDS011;40065;49.894;10.358;2023-07-22T20:19:52;4.53;;;2.40;;
54157;SDS011;40065;49.894;10.358;2023-07-22T20:24:54;4.25;;;2.33;;
54157;SDS011;40065;49.894;10.358;2023-07-22T20:29:56;5.57;;;2.22;;
54157;SDS011;40065;49.894;10.358;2023-07-22T20:34:58;4.28;;;1.90;;
54157;SDS011;40065;49.894;10.358;2023-07-22T20:40:00;3.53;;;2.10;;
54157;SDS011;40065;49.894;10.358;2023-07-22T20:45:02;3.72;;;1.75;;
54157;SDS011;40065;49.894;10.358;2023-07-22T20:50:05;5.22;;;2.00;;
54157;SDS011;40065;49.894;10.358;2023-07-22T20:55:07;3.97;;;2.20;;
54157;SDS011;40065;49.894;10.358;2023-07-22T21:00:10;3.38;;;1.90;;
54157;SDS011;40065;49.894;10.358;2023-07-22T21:05:12;4.63;;;2.00;;
54157;SDS011;40065;49.894;10.358;2023-07-22T21:10:14;4.55;;;1.92;;
54157;SDS011;40065;49.894;10.358;2023-07-22T21:15:16;2.85;;;1.92;;
54157;SDS011;40065;49.894;10.358;2023-07-22T21:20:18;6.57;;;1.98;;
54157;SDS011;40065;49.894;10.358;2023-07-22T21:25:20;6.20;;;2.20;;
54157;SDS011;40065;49.894;10.358;2023-07-22T21:30:22;7.10;;;2.58;;
54157;SDS011;40065;49.894;10.358;2023-07-22T21:35:24;5.53;;;2.20;;
54157;SDS011;40065;49.894;10.358;2023-07-22T21:40:26;6.47;;;2.30;;
54157;SDS011;40065;49.894;10.358;2023-07-22T21:45:28;4.40;;;2.10;;
54157;SDS011;40065;49.894;10.358;2023-07-22T21:50:30;6.03;;;2.30;;
54157;SDS011;40065;49.894;10.358;2023-07-22T21:55:32;5.25;;;2.20;;
54157;SDS011;40065;49.894;10.358;2023-07-22T22:00:35;4.90;;;2.27;;
54157;SDS011;40065;49.894;10.358;2023-07-22T22:05:37;7.25;;;2.20;;
54157;SDS011;40065;49.894;10.358;2023-07-22T22:10:40;6.10;;;2.47;;
54157;SDS011;40065;49.894;10.358;2023-07-22T22:15:43;4.78;;;2.00;;
54157;SDS011;40065;49.894;10.358;2023-07-22T22:20:45;5.25;;;2.08;;
54157;SDS011;40065;49.894;10.358;2023-07-22T22:25:47;6.05;;;2.60;;
54157;SDS011;40065;49.894;10.358;2023-07-22T22:30:49;4.80;;;2.40;;
54157;SDS011;40065;49.894;10.358;2023-07-22T22:35:51;4.25;;;2.38;;
54157;SDS011;40065;49.894;10.358;2023-07-22T22:40:53;4.53;;;2.30;;
54157;SDS011;40065;49.894;10.358;2023-07-22T22:45:55;4.00;;;2.03;;
54157;SDS011;40065;49.894;10.358;2023-07-22T22:50:57;3.40;;;1.98;;
54157;SDS011;40065;49.894;10.358;2023-07-22T22:56:02;4.10;;;2.05;;
54157;SDS011;40065;49.894;10.358;2023-07-22T23:01:11;4.30;;;2.13;;
54157;SDS011;40065;49.894;10.358;2023-07-22T23:06:19;7.03;;;2.13;;
54157;SDS011;40065;49.894;10.358;2023-07-22T23:11:21;7.28;;;2.22;;
54157;SDS011;40065;49.894;10.358;2023-07-22T23:16:25;4.65;;;2.10;;
54157;SDS011;40065;49.894;10.358;2023-07-22T23:21:26;4.47;;;2.20;;
54157;SDS011;40065;49.894;10.358;2023-07-22T23:26:29;4.93;;;2.17;;
54157;SDS011;40065;49.894;10.358;2023-07-22T23:31:32;4.60;;;2.03;;
54157;SDS011;40065;49.894;10.358;2023-07-22T23:36:34;4.18;;;2.08;;
54157;SDS011;40065;49.894;10.358;2023-07-22T23:41:37;6.13;;;2.10;;
54157;SDS011;40065;49.894;10.358;2023-07-22T23:46:39;5.40;;;2.03;;
54157;SDS011;40065;49.894;10.358;2023-07-22T23:51:41;5.35;;;2.20;;
54157;SDS011;40065;49.894;10.358;2023-07-22T23:56:43;5.65;;;2.30;;
